Search for airport 
image banner adimage banner adimage banner ad
image banner ad

PA37 - Sci-Mahanoy

Located in Mahanoy, United States

ICAO - PA37, IATA -

Data provided by Airmate  

General information

Coordinates: N40°47'44" W76°10'37"
Elevation is 1500 feet MSL.
Magnetic variation is -12° East
View others Airports in Pennsylvania

Operational data

Special qualification required
Current time UTC:
Current local time:
Weather at : KHZL - Hazleton Rgnl ( 26 km )
METAR: KHZL 091315Z AUTO 00000KT 10SM CLR 07/02 A3009 RMK AO2
View NOTAMs / SUP AIP / TFR affecting this airport [VIEW]
Communications frequencies: [VIEW]

Runways:

Airport contact information

Address: Mahanoy United States

Satellite view of PA37